createdAt,value
2023-05-04T00:00:03.026Z,27.9
2023-05-04T00:10:03.324Z,28.2
2023-05-04T00:20:02.491Z,28.6
2023-05-04T00:30:02.522Z,28.8
2023-05-04T00:40:02.712Z,28.9
2023-05-04T00:50:02.856Z,29.2
2023-05-04T01:00:03.167Z,29.4
2023-05-04T01:10:03.220Z,29.5
2023-05-04T01:20:02.640Z,29.7
2023-05-04T01:30:02.579Z,29.7
2023-05-04T01:40:02.641Z,29.8
2023-05-04T01:50:02.682Z,29.6
2023-05-04T02:00:02.595Z,29.7
2023-05-04T02:10:02.703Z,29.8
2023-05-04T02:20:02.871Z,30.1
2023-05-04T02:30:02.875Z,30.1
2023-05-04T02:40:03.023Z,30.1
2023-05-04T02:50:03.337Z,30.1
2023-05-04T03:00:03.267Z,30.4
2023-05-04T03:10:03.290Z,30.8
2023-05-04T03:20:03.273Z,30.5
2023-05-04T03:30:03.427Z,30.4
2023-05-04T03:40:02.353Z,30.3
2023-05-04T03:50:03.291Z,30.3
2023-05-04T04:00:03.372Z,30.4
2023-05-04T04:10:02.247Z,30.4
2023-05-04T04:20:03.355Z,30.6
2023-05-04T04:30:03.386Z,30.6
2023-05-04T04:40:02.293Z,30.6
2023-05-04T04:50:03.315Z,30.6
2023-05-04T05:00:03.175Z,30.7
2023-05-04T05:10:02.954Z,30.6
2023-05-04T05:20:02.968Z,30.7
2023-05-04T05:30:02.885Z,30.7
2023-05-04T05:40:02.813Z,30.8
2023-05-04T05:50:02.945Z,30.9
2023-05-04T06:00:03.018Z,30.3
2023-05-04T06:10:03.168Z,30.3
2023-05-04T06:20:03.216Z,30.4
2023-05-04T06:30:03.086Z,30.5
2023-05-04T06:40:02.930Z,30.6
2023-05-04T06:50:02.755Z,30.5
2023-05-04T07:00:02.716Z,30.6
2023-05-04T07:10:02.561Z,30.4
2023-05-04T07:20:02.830Z,30.3
2023-05-04T07:30:02.788Z,30.3
2023-05-04T07:40:02.717Z,30.3
2023-05-04T07:50:02.768Z,30.3
2023-05-04T08:00:02.558Z,30.2
2023-05-04T08:10:02.480Z,30.3
2023-05-04T08:20:02.371Z,30.4
2023-05-04T08:30:03.208Z,30.3
2023-05-04T08:40:03.012Z,30.3
2023-05-04T08:50:02.855Z,30.4
2023-05-04T09:00:02.696Z,30.4
2023-05-04T09:10:04.295Z,30.7
2023-05-04T09:20:03.092Z,30.7
2023-05-04T09:30:02.872Z,30.4
2023-05-04T09:40:02.636Z,30.3
2023-05-04T09:50:02.519Z,30.3
2023-05-04T10:00:02.537Z,30.3
2023-05-04T10:10:02.354Z,30.1
2023-05-04T10:20:03.146Z,30
2023-05-04T10:30:02.957Z,30
2023-05-04T10:40:02.951Z,29.9
2023-05-04T10:50:02.696Z,29.9
2023-05-04T11:00:02.361Z,30
2023-05-04T11:10:03.149Z,30
2023-05-04T11:20:03.086Z,30
2023-05-04T11:30:02.987Z,29.9
2023-05-04T11:40:02.774Z,30
2023-05-04T11:50:02.867Z,29.9
2023-05-04T12:00:02.673Z,29.9
2023-05-04T12:10:02.391Z,29.9
2023-05-04T12:20:03.217Z,29.9
2023-05-04T12:30:03.085Z,29.8
2023-05-04T12:40:04.359Z,29.9
2023-05-04T12:50:02.302Z,29.9
2023-05-04T13:00:03.099Z,29.8
2023-05-04T13:10:02.921Z,29.9
2023-05-04T13:20:02.705Z,29.9
2023-05-04T13:30:02.474Z,30.1
2023-05-04T13:40:03.223Z,29.9
2023-05-04T13:50:02.951Z,30
2023-05-04T14:00:07.411Z,30
2023-05-04T14:10:02.994Z,30
2023-05-04T14:20:02.778Z,30
2023-05-04T14:30:02.638Z,29.9
2023-05-04T14:40:02.285Z,30
2023-05-04T14:50:02.956Z,29.9
2023-05-04T15:00:02.598Z,29.9
2023-05-04T15:10:02.290Z,29.9
2023-05-04T15:20:03.054Z,29.9
2023-05-04T15:30:02.775Z,29.5
2023-05-04T15:40:02.858Z,30
2023-05-04T15:50:02.581Z,30
2023-05-04T16:00:02.459Z,29.9
2023-05-04T16:10:03.291Z,30
2023-05-04T16:20:03.060Z,29.9
2023-05-04T16:30:03.078Z,29.8
2023-05-04T16:40:03.130Z,29.8
2023-05-04T16:50:03.388Z,29.8
2023-05-04T17:00:03.384Z,29.8
2023-05-04T17:10:03.217Z,29.8
2023-05-04T17:20:02.393Z,28.9
2023-05-04T17:30:03.106Z,29.3
2023-05-04T17:40:02.932Z,29.3
2023-05-04T17:50:02.661Z,29.4
2023-05-04T18:00:02.397Z,28.3
2023-05-04T18:10:03.163Z,27.9
2023-05-04T18:20:02.990Z,27.5
2023-05-04T18:30:02.799Z,27.5
2023-05-04T18:40:02.483Z,27.3
2023-05-04T18:50:03.206Z,27.2
2023-05-04T19:00:02.864Z,27.1
2023-05-04T19:10:02.492Z,27.1
2023-05-04T19:20:02.407Z,27.1
2023-05-04T19:30:03.294Z,27.1
2023-05-04T19:40:02.924Z,27
2023-05-04T19:50:02.678Z,27.1
2023-05-04T20:00:02.445Z,27
2023-05-04T20:10:03.152Z,27.1
2023-05-04T20:20:03.045Z,27.1
2023-05-04T20:30:02.808Z,27
2023-05-04T20:40:02.563Z,27.1
2023-05-04T20:50:02.774Z,27.1
2023-05-04T21:00:02.557Z,27.2
2023-05-04T21:10:02.410Z,27.1
2023-05-04T21:20:02.446Z,27
2023-05-04T21:30:03.188Z,27.1
2023-05-04T21:40:02.917Z,27
2023-05-04T21:50:02.731Z,27.2
2023-05-04T22:00:02.587Z,27.2
2023-05-04T22:10:02.320Z,27.2
2023-05-04T22:20:05.143Z,26.9
2023-05-04T22:30:02.508Z,26.9
2023-05-04T22:40:03.232Z,26.8
2023-05-04T22:50:02.977Z,26.8
2023-05-04T23:00:02.624Z,26.8
2023-05-04T23:10:02.385Z,26.6
2023-05-04T23:20:03.345Z,26.8
2023-05-04T23:30:03.157Z,26.9
2023-05-04T23:40:03.015Z,27.1
2023-05-04T23:50:02.673Z,27.4
